Terminal Aerodrome Forecast
Issued by NWS Grand Forks, ND

Home | Current Version | Previous Version | Text Only | Print | Product List | Glossary Off
Versions: 1 2 3 4 5 6 7 8 9 10 11 12 13 14

000
FTUS43 KFGF 201100
TAFFAR
TAF
KFAR 201130Z 2012/2112 16008KT P6SM SCT250
     FM201600 21014G20KT P6SM SCT250
     FM202200 26012KT P6SM SCT100 SCT250
     FM210300 VRB05KT P6SM SCT250=

USA.gov is the U.S. government's official web portal to all federal, state and local government web resources and services.